sensor_id;sensor_type;location;lat;lon;timestamp;temperature;humidity
62904;DHT22;49000;50.698;13.322;2022-10-16T00:01:13;12.40;99.90
62904;DHT22;49000;50.698;13.322;2022-10-16T00:03:40;12.40;99.90
62904;DHT22;49000;50.698;13.322;2022-10-16T00:06:06;12.40;99.90
62904;DHT22;49000;50.698;13.322;2022-10-16T00:08:33;12.30;99.90
62904;DHT22;49000;50.698;13.322;2022-10-16T00:11:10;12.30;99.90
62904;DHT22;49000;50.698;13.322;2022-10-16T00:13:37;12.30;99.90
62904;DHT22;49000;50.698;13.322;2022-10-16T00:16:04;12.30;99.90
62904;DHT22;49000;50.698;13.322;2022-10-16T00:18:31;12.30;99.90
62904;DHT22;49000;50.698;13.322;2022-10-16T00:21:02;12.20;99.90
62904;DHT22;49000;50.698;13.322;2022-10-16T00:23:28;12.20;99.90
62904;DHT22;49000;50.698;13.322;2022-10-16T00:25:56;12.20;99.90
62904;DHT22;49000;50.698;13.322;2022-10-16T00:28:22;12.10;99.90
62904;DHT22;49000;50.698;13.322;2022-10-16T00:30:48;12.20;99.90
62904;DHT22;49000;50.698;13.322;2022-10-16T00:33:13;12.10;99.90
62904;DHT22;49000;50.698;13.322;2022-10-16T00:35:39;12.10;99.90
62904;DHT22;49000;50.698;13.322;2022-10-16T00:38:04;12.10;99.90
62904;DHT22;49000;50.698;13.322;2022-10-16T00:40:30;12.10;99.90
62904;DHT22;49000;50.698;13.322;2022-10-16T00:42:57;12.00;99.90
62904;DHT22;49000;50.698;13.322;2022-10-16T00:45:22;12.00;99.90
62904;DHT22;49000;50.698;13.322;2022-10-16T00:47:49;12.00;99.90
62904;DHT22;49000;50.698;13.322;2022-10-16T00:50:32;11.90;99.90
62904;DHT22;49000;50.698;13.322;2022-10-16T00:52:58;11.90;99.90
62904;DHT22;49000;50.698;13.322;2022-10-16T00:55:26;11.90;99.90
62904;DHT22;49000;50.698;13.322;2022-10-16T00:57:53;11.80;99.90
62904;DHT22;49000;50.698;13.322;2022-10-16T01:00:22;11.90;99.90
62904;DHT22;49000;50.698;13.322;2022-10-16T01:02:56;11.80;99.90
62904;DHT22;49000;50.698;13.322;2022-10-16T01:05:24;11.80;99.90
62904;DHT22;49000;50.698;13.322;2022-10-16T01:08:13;11.80;99.90
62904;DHT22;49000;50.698;13.322;2022-10-16T01:13:18;11.80;99.90
62904;DHT22;49000;50.698;13.322;2022-10-16T01:15:58;11.80;99.90
62904;DHT22;49000;50.698;13.322;2022-10-16T01:18:37;11.80;99.90
62904;DHT22;49000;50.698;13.322;2022-10-16T01:21:07;11.90;99.90
62904;DHT22;49000;50.698;13.322;2022-10-16T01:24:06;11.90;99.90
62904;DHT22;49000;50.698;13.322;2022-10-16T01:29:54;12.00;99.90
62904;DHT22;49000;50.698;13.322;2022-10-16T01:32:31;12.00;99.90
62904;DHT22;49000;50.698;13.322;2022-10-16T01:35:05;12.00;99.90
62904;DHT22;49000;50.698;13.322;2022-10-16T01:37:38;12.10;99.90
62904;DHT22;49000;50.698;13.322;2022-10-16T01:40:09;12.10;99.90
62904;DHT22;49000;50.698;13.322;2022-10-16T01:42:41;12.20;99.90
62904;DHT22;49000;50.698;13.322;2022-10-16T01:45:07;12.20;99.90
62904;DHT22;49000;50.698;13.322;2022-10-16T01:47:35;12.20;99.90
62904;DHT22;49000;50.698;13.322;2022-10-16T01:50:03;12.30;99.90
62904;DHT22;49000;50.698;13.322;2022-10-16T01:52:32;12.30;99.90
62904;DHT22;49000;50.698;13.322;2022-10-16T01:55:00;12.40;99.90
62904;DHT22;49000;50.698;13.322;2022-10-16T01:57:28;12.40;99.90
62904;DHT22;49000;50.698;13.322;2022-10-16T01:59:58;12.50;99.90
62904;DHT22;49000;50.698;13.322;2022-10-16T02:02:27;12.50;99.90
62904;DHT22;49000;50.698;13.322;2022-10-16T02:05:02;12.50;99.90
62904;DHT22;49000;50.698;13.322;2022-10-16T02:07:29;12.60;99.90
62904;DHT22;49000;50.698;13.322;2022-10-16T02:09:55;12.60;99.90
62904;DHT22;49000;50.698;13.322;2022-10-16T02:12:28;12.60;99.90
62904;DHT22;49000;50.698;13.322;2022-10-16T02:14:54;12.60;99.90
62904;DHT22;49000;50.698;13.322;2022-10-16T02:17:20;12.70;99.90
62904;DHT22;49000;50.698;13.322;2022-10-16T02:19:48;12.70;99.90
62904;DHT22;49000;50.698;13.322;2022-10-16T02:22:45;12.70;99.90
62904;DHT22;49000;50.698;13.322;2022-10-16T02:25:19;12.70;99.90
62904;DHT22;49000;50.698;13.322;2022-10-16T02:28:09;12.80;99.90
62904;DHT22;49000;50.698;13.322;2022-10-16T02:33:11;12.80;99.90
62904;DHT22;49000;50.698;13.322;2022-10-16T02:35:39;12.80;99.90
62904;DHT22;49000;50.698;13.322;2022-10-16T02:38:06;12.80;99.90
62904;DHT22;49000;50.698;13.322;2022-10-16T02:40:33;12.90;99.90
62904;DHT22;49000;50.698;13.322;2022-10-16T02:42:58;12.90;99.90
62904;DHT22;49000;50.698;13.322;2022-10-16T02:45:24;12.90;99.90
62904;DHT22;49000;50.698;13.322;2022-10-16T02:47:50;12.90;99.90
62904;DHT22;49000;50.698;13.322;2022-10-16T02:50:16;12.90;99.90
62904;DHT22;49000;50.698;13.322;2022-10-16T02:52:42;12.90;99.90
62904;DHT22;49000;50.698;13.322;2022-10-16T02:55:08;12.90;99.90
62904;DHT22;49000;50.698;13.322;2022-10-16T02:57:33;12.90;99.90
62904;DHT22;49000;50.698;13.322;2022-10-16T02:59:59;12.80;99.90
62904;DHT22;49000;50.698;13.322;2022-10-16T03:02:24;12.70;99.90
62904;DHT22;49000;50.698;13.322;2022-10-16T03:04:50;12.70;99.90
62904;DHT22;49000;50.698;13.322;2022-10-16T03:07:15;12.70;99.90
62904;DHT22;49000;50.698;13.322;2022-10-16T03:09:41;12.60;99.90
62904;DHT22;49000;50.698;13.322;2022-10-16T03:12:07;12.50;99.90
62904;DHT22;49000;50.698;13.322;2022-10-16T03:14:33;12.50;99.90
62904;DHT22;49000;50.698;13.322;2022-10-16T03:16:58;12.50;99.90
62904;DHT22;49000;50.698;13.322;2022-10-16T03:19:24;12.40;99.90
62904;DHT22;49000;50.698;13.322;2022-10-16T03:21:49;12.40;99.90
62904;DHT22;49000;50.698;13.322;2022-10-16T03:24:15;12.40;99.90
62904;DHT22;49000;50.698;13.322;2022-10-16T03:26:40;12.40;99.90
62904;DHT22;49000;50.698;13.322;2022-10-16T03:29:06;12.40;99.90
62904;DHT22;49000;50.698;13.322;2022-10-16T03:31:32;12.40;99.90
62904;DHT22;49000;50.698;13.322;2022-10-16T03:33:57;12.40;99.90
62904;DHT22;49000;50.698;13.322;2022-10-16T03:36:23;12.30;99.90
62904;DHT22;49000;50.698;13.322;2022-10-16T03:38:49;12.30;99.90
62904;DHT22;49000;50.698;13.322;2022-10-16T03:41:14;12.20;99.90
62904;DHT22;49000;50.698;13.322;2022-10-16T03:43:40;12.20;99.90
62904;DHT22;49000;50.698;13.322;2022-10-16T03:46:05;12.20;99.90
62904;DHT22;49000;50.698;13.322;2022-10-16T03:48:31;12.10;99.90
62904;DHT22;49000;50.698;13.322;2022-10-16T03:50:57;12.10;99.90
62904;DHT22;49000;50.698;13.322;2022-10-16T03:53:23;12.00;99.90
62904;DHT22;49000;50.698;13.322;2022-10-16T03:55:48;12.00;99.90
62904;DHT22;49000;50.698;13.322;2022-10-16T03:58:14;11.90;99.90
62904;DHT22;49000;50.698;13.322;2022-10-16T04:00:41;11.90;99.90
62904;DHT22;49000;50.698;13.322;2022-10-16T04:03:07;11.90;99.90
62904;DHT22;49000;50.698;13.322;2022-10-16T04:05:32;11.90;99.90
62904;DHT22;49000;50.698;13.322;2022-10-16T04:07:58;11.90;99.90
62904;DHT22;49000;50.698;13.322;2022-10-16T04:10:23;11.80;99.90
62904;DHT22;49000;50.698;13.322;2022-10-16T04:12:49;11.80;99.90
62904;DHT22;49000;50.698;13.322;2022-10-16T04:15:14;11.80;99.90
62904;DHT22;49000;50.698;13.322;2022-10-16T04:17:40;11.80;99.90
62904;DHT22;49000;50.698;13.322;2022-10-16T04:20:06;11.80;99.90
62904;DHT22;49000;50.698;13.322;2022-10-16T04:22:31;11.80;99.90
62904;DHT22;49000;50.698;13.322;2022-10-16T04:24:57;11.80;99.90
62904;DHT22;49000;50.698;13.322;2022-10-16T04:27:22;11.80;99.90
62904;DHT22;49000;50.698;13.322;2022-10-16T04:29:48;11.80;99.90
62904;DHT22;49000;50.698;13.322;2022-10-16T04:32:13;11.80;99.90
62904;DHT22;49000;50.698;13.322;2022-10-16T04:34:39;11.80;99.90
62904;DHT22;49000;50.698;13.322;2022-10-16T04:37:05;11.90;99.90
62904;DHT22;49000;50.698;13.322;2022-10-16T04:39:31;11.90;99.90
62904;DHT22;49000;50.698;13.322;2022-10-16T04:41:56;11.90;99.90
62904;DHT22;49000;50.698;13.322;2022-10-16T04:44:22;12.00;99.90
62904;DHT22;49000;50.698;13.322;2022-10-16T04:46:50;12.00;99.90
62904;DHT22;49000;50.698;13.322;2022-10-16T04:49:15;12.10;99.90
62904;DHT22;49000;50.698;13.322;2022-10-16T04:51:41;12.10;99.90
62904;DHT22;49000;50.698;13.322;2022-10-16T04:54:07;12.20;99.90
62904;DHT22;49000;50.698;13.322;2022-10-16T04:56:32;12.20;99.90
62904;DHT22;49000;50.698;13.322;2022-10-16T04:58:58;12.20;99.90
62904;DHT22;49000;50.698;13.322;2022-10-16T05:01:23;12.30;99.90
62904;DHT22;49000;50.698;13.322;2022-10-16T05:03:49;12.30;99.90
62904;DHT22;49000;50.698;13.322;2022-10-16T05:06:14;12.30;99.90
62904;DHT22;49000;50.698;13.322;2022-10-16T05:08:40;12.30;99.90
62904;DHT22;49000;50.698;13.322;2022-10-16T05:11:05;12.30;99.90
62904;DHT22;49000;50.698;13.322;2022-10-16T05:13:31;12.40;99.90
62904;DHT22;49000;50.698;13.322;2022-10-16T05:15:56;12.30;99.90
62904;DHT22;49000;50.698;13.322;2022-10-16T05:18:22;12.40;99.90
62904;DHT22;49000;50.698;13.322;2022-10-16T05:20:48;12.40;99.90
62904;DHT22;49000;50.698;13.322;2022-10-16T05:23:13;12.40;99.90
62904;DHT22;49000;50.698;13.322;2022-10-16T05:25:39;12.40;99.90
62904;DHT22;49000;50.698;13.322;2022-10-16T05:28:04;12.40;99.90
62904;DHT22;49000;50.698;13.322;2022-10-16T05:30:30;12.40;99.90
62904;DHT22;49000;50.698;13.322;2022-10-16T05:32:55;12.40;99.90
62904;DHT22;49000;50.698;13.322;2022-10-16T05:35:21;12.30;99.90
62904;DHT22;49000;50.698;13.322;2022-10-16T05:37:47;12.30;99.90
62904;DHT22;49000;50.698;13.322;2022-10-16T05:40:13;12.30;99.90
62904;DHT22;49000;50.698;13.322;2022-10-16T05:42:39;12.30;99.90
62904;DHT22;49000;50.698;13.322;2022-10-16T05:45:06;12.30;99.90
62904;DHT22;49000;50.698;13.322;2022-10-16T05:47:32;12.20;99.90
62904;DHT22;49000;50.698;13.322;2022-10-16T05:49:57;12.20;99.90
62904;DHT22;49000;50.698;13.322;2022-10-16T05:52:23;12.30;99.90
62904;DHT22;49000;50.698;13.322;2022-10-16T05:54:48;12.30;99.90
62904;DHT22;49000;50.698;13.322;2022-10-16T05:57:14;12.30;99.90
62904;DHT22;49000;50.698;13.322;2022-10-16T05:59:39;12.30;99.90
62904;DHT22;49000;50.698;13.322;2022-10-16T06:02:05;12.30;99.90
62904;DHT22;49000;50.698;13.322;2022-10-16T06:04:30;12.30;99.90
62904;DHT22;49000;50.698;13.322;2022-10-16T06:06:58;12.30;99.90
62904;DHT22;49000;50.698;13.322;2022-10-16T06:09:25;12.30;99.90
62904;DHT22;49000;50.698;13.322;2022-10-16T06:11:51;12.40;99.90
62904;DHT22;49000;50.698;13.322;2022-10-16T06:14:16;12.40;99.90
62904;DHT22;49000;50.698;13.322;2022-10-16T06:16:42;12.40;99.90
62904;DHT22;49000;50.698;13.322;2022-10-16T06:19:07;12.40;99.90
62904;DHT22;49000;50.698;13.322;2022-10-16T06:21:34;12.50;99.90
62904;DHT22;49000;50.698;13.322;2022-10-16T06:24:00;12.50;99.90
62904;DHT22;49000;50.698;13.322;2022-10-16T06:26:27;12.50;99.90
62904;DHT22;49000;50.698;13.322;2022-10-16T06:28:58;12.60;99.90
62904;DHT22;49000;50.698;13.322;2022-10-16T06:31:25;12.50;99.90
62904;DHT22;49000;50.698;13.322;2022-10-16T06:33:56;12.60;99.90
62904;DHT22;49000;50.698;13.322;2022-10-16T06:36:23;12.60;99.90
62904;DHT22;49000;50.698;13.322;2022-10-16T06:38:49;12.70;99.90
62904;DHT22;49000;50.698;13.322;2022-10-16T06:41:17;12.70;99.90
62904;DHT22;49000;50.698;13.322;2022-10-16T06:43:43;12.80;99.90
62904;DHT22;49000;50.698;13.322;2022-10-16T06:46:11;12.80;99.90
62904;DHT22;49000;50.698;13.322;2022-10-16T06:48:38;12.90;99.90
62904;DHT22;49000;50.698;13.322;2022-10-16T06:51:13;13.00;99.90
62904;DHT22;49000;50.698;13.322;2022-10-16T06:53:46;13.10;99.90
62904;DHT22;49000;50.698;13.322;2022-10-16T06:56:19;13.20;99.90
62904;DHT22;49000;50.698;13.322;2022-10-16T06:58:45;13.20;99.90
62904;DHT22;49000;50.698;13.322;2022-10-16T07:01:12;13.30;99.90
62904;DHT22;49000;50.698;13.322;2022-10-16T07:03:39;13.40;99.90
62904;DHT22;49000;50.698;13.322;2022-10-16T07:06:07;13.50;99.90
62904;DHT22;49000;50.698;13.322;2022-10-16T07:08:34;13.60;99.90
62904;DHT22;49000;50.698;13.322;2022-10-16T07:11:05;13.70;99.90
62904;DHT22;49000;50.698;13.322;2022-10-16T07:13:38;13.80;99.90
62904;DHT22;49000;50.698;13.322;2022-10-16T07:18:34;14.00;99.90
62904;DHT22;49000;50.698;13.322;2022-10-16T07:21:08;14.10;99.90
62904;DHT22;49000;50.698;13.322;2022-10-16T07:23:34;14.10;99.90
62904;DHT22;49000;50.698;13.322;2022-10-16T07:26:00;14.20;99.90
62904;DHT22;49000;50.698;13.322;2022-10-16T07:28:25;14.30;99.90
62904;DHT22;49000;50.698;13.322;2022-10-16T07:30:51;14.40;99.90
62904;DHT22;49000;50.698;13.322;2022-10-16T07:33:16;14.50;99.90
62904;DHT22;49000;50.698;13.322;2022-10-16T07:35:50;14.60;99.90
62904;DHT22;49000;50.698;13.322;2022-10-16T07:38:16;14.70;99.90
62904;DHT22;49000;50.698;13.322;2022-10-16T07:40:41;14.80;99.90
62904;DHT22;49000;50.698;13.322;2022-10-16T07:43:07;14.90;99.90
62904;DHT22;49000;50.698;13.322;2022-10-16T07:45:32;15.00;99.90
62904;DHT22;49000;50.698;13.322;2022-10-16T07:47:58;15.10;99.90
62904;DHT22;49000;50.698;13.322;2022-10-16T07:50:23;15.20;99.90
62904;DHT22;49000;50.698;13.322;2022-10-16T07:52:49;15.20;99.90
62904;DHT22;49000;50.698;13.322;2022-10-16T07:55:14;15.30;99.90
62904;DHT22;49000;50.698;13.322;2022-10-16T07:57:40;15.30;99.90
62904;DHT22;49000;50.698;13.322;2022-10-16T08:00:06;15.40;99.90
62904;DHT22;49000;50.698;13.322;2022-10-16T08:02:32;15.50;99.90
62904;DHT22;49000;50.698;13.322;2022-10-16T08:04:57;15.60;99.90
62904;DHT22;49000;50.698;13.322;2022-10-16T08:07:23;15.60;99.90
62904;DHT22;49000;50.698;13.322;2022-10-16T08:09:51;15.70;99.90
62904;DHT22;49000;50.698;13.322;2022-10-16T08:12:17;15.90;99.90
62904;DHT22;49000;50.698;13.322;2022-10-16T08:14:43;16.00;99.90
62904;DHT22;49000;50.698;13.322;2022-10-16T08:17:08;16.20;99.90
62904;DHT22;49000;50.698;13.322;2022-10-16T08:19:34;16.30;99.90
62904;DHT22;49000;50.698;13.322;2022-10-16T08:22:00;16.40;99.90
62904;DHT22;49000;50.698;13.322;2022-10-16T08:24:26;16.40;99.90
62904;DHT22;49000;50.698;13.322;2022-10-16T08:26:53;16.50;99.90
62904;DHT22;49000;50.698;13.322;2022-10-16T08:29:19;16.60;99.90
62904;DHT22;49000;50.698;13.322;2022-10-16T08:31:45;16.70;99.90
62904;DHT22;49000;50.698;13.322;2022-10-16T08:34:10;16.80;99.90
62904;DHT22;49000;50.698;13.322;2022-10-16T08:36:36;16.90;99.90
62904;DHT22;49000;50.698;13.322;2022-10-16T08:39:01;17.00;99.90
62904;DHT22;49000;50.698;13.322;2022-10-16T08:41:48;17.10;99.90
62904;DHT22;49000;50.698;13.322;2022-10-16T08:49:41;17.10;99.90
62904;DHT22;49000;50.698;13.322;2022-10-16T08:52:12;17.10;99.90
62904;DHT22;49000;50.698;13.322;2022-10-16T08:54:43;17.10;99.90
62904;DHT22;49000;50.698;13.322;2022-10-16T08:57:20;17.20;99.90
62904;DHT22;49000;50.698;13.322;2022-10-16T08:59:46;17.30;99.90
62904;DHT22;49000;50.698;13.322;2022-10-16T09:02:29;17.50;99.90
62904;DHT22;49000;50.698;13.322;2022-10-16T09:10:32;17.70;99.90
62904;DHT22;49000;50.698;13.322;2022-10-16T09:15:46;17.90;99.90
62904;DHT22;49000;50.698;13.322;2022-10-16T09:18:54;18.00;99.90
62904;DHT22;49000;50.698;13.322;2022-10-16T09:21:33;18.20;99.90
62904;DHT22;49000;50.698;13.322;2022-10-16T09:24:16;18.40;99.90
62904;DHT22;49000;50.698;13.322;2022-10-16T09:26:43;18.40;99.90
62904;DHT22;49000;50.698;13.322;2022-10-16T09:29:12;18.40;99.90
62904;DHT22;49000;50.698;13.322;2022-10-16T09:31:38;18.40;99.90
62904;DHT22;49000;50.698;13.322;2022-10-16T09:34:05;18.30;99.90
62904;DHT22;49000;50.698;13.322;2022-10-16T09:36:43;18.20;99.90
62904;DHT22;49000;50.698;13.322;2022-10-16T09:39:10;18.10;99.90
62904;DHT22;49000;50.698;13.322;2022-10-16T09:41:43;18.10;99.90
62904;DHT22;49000;50.698;13.322;2022-10-16T09:44:23;18.10;99.90
62904;DHT22;49000;50.698;13.322;2022-10-16T09:47:00;18.10;99.90
62904;DHT22;49000;50.698;13.322;2022-10-16T09:49:26;18.10;99.90
62904;DHT22;49000;50.698;13.322;2022-10-16T09:52:13;18.10;99.90
62904;DHT22;49000;50.698;13.322;2022-10-16T09:54:56;18.10;99.90
62904;DHT22;49000;50.698;13.322;2022-10-16T09:57:23;18.20;99.90
62904;DHT22;49000;50.698;13.322;2022-10-16T09:59:53;18.20;99.90
62904;DHT22;49000;50.698;13.322;2022-10-16T10:02:36;18.30;99.90
62904;DHT22;49000;50.698;13.322;2022-10-16T10:05:05;18.30;99.90
62904;DHT22;49000;50.698;13.322;2022-10-16T10:07:33;18.30;99.90
62904;DHT22;49000;50.698;13.322;2022-10-16T10:10:03;18.20;99.90
62904;DHT22;49000;50.698;13.322;2022-10-16T10:12:33;18.20;99.90
62904;DHT22;49000;50.698;13.322;2022-10-16T10:15:11;18.20;99.90
62904;DHT22;49000;50.698;13.322;2022-10-16T10:17:57;18.30;99.90
62904;DHT22;49000;50.698;13.322;2022-10-16T10:20:34;18.30;99.90
62904;DHT22;49000;50.698;13.322;2022-10-16T10:23:14;18.30;99.90
62904;DHT22;49000;50.698;13.322;2022-10-16T10:28:27;18.40;99.90
62904;DHT22;49000;50.698;13.322;2022-10-16T10:33:56;18.60;99.90
62904;DHT22;49000;50.698;13.322;2022-10-16T10:36:38;18.60;99.90
62904;DHT22;49000;50.698;13.322;2022-10-16T10:39:15;18.70;99.90
62904;DHT22;49000;50.698;13.322;2022-10-16T10:45:26;18.70;99.90
62904;DHT22;49000;50.698;13.322;2022-10-16T10:50:31;18.80;99.90
62904;DHT22;49000;50.698;13.322;2022-10-16T10:53:18;18.80;99.90
62904;DHT22;49000;50.698;13.322;2022-10-16T11:06:35;18.90;99.90
62904;DHT22;49000;50.698;13.322;2022-10-16T11:09:09;18.90;99.90
62904;DHT22;49000;50.698;13.322;2022-10-16T11:11:51;19.00;99.90
62904;DHT22;49000;50.698;13.322;2022-10-16T11:14:23;19.00;99.90
62904;DHT22;49000;50.698;13.322;2022-10-16T11:22:19;19.20;99.90
62904;DHT22;49000;50.698;13.322;2022-10-16T11:24:59;19.40;99.90
62904;DHT22;49000;50.698;13.322;2022-10-16T11:27:37;19.50;99.90
62904;DHT22;49000;50.698;13.322;2022-10-16T11:30:12;19.50;99.90
62904;DHT22;49000;50.698;13.322;2022-10-16T11:36:35;19.80;99.90
62904;DHT22;49000;50.698;13.322;2022-10-16T11:41:27;20.00;99.90
62904;DHT22;49000;50.698;13.322;2022-10-16T11:46:30;20.10;99.90
62904;DHT22;49000;50.698;13.322;2022-10-16T11:49:15;20.20;99.90
62904;DHT22;49000;50.698;13.322;2022-10-16T11:54:56;20.90;99.90
62904;DHT22;49000;50.698;13.322;2022-10-16T11:57:27;20.90;99.90
62904;DHT22;49000;50.698;13.322;2022-10-16T12:05:18;20.90;99.90
62904;DHT22;49000;50.698;13.322;2022-10-16T12:10:34;20.70;99.90
62904;DHT22;49000;50.698;13.322;2022-10-16T12:13:05;20.80;99.90
62904;DHT22;49000;50.698;13.322;2022-10-16T12:15:33;20.80;99.90
62904;DHT22;49000;50.698;13.322;2022-10-16T12:17:59;20.80;99.90
62904;DHT22;49000;50.698;13.322;2022-10-16T12:20:27;20.80;99.90
62904;DHT22;49000;50.698;13.322;2022-10-16T12:23:03;20.90;99.90
62904;DHT22;49000;50.698;13.322;2022-10-16T12:25:30;20.80;99.90
62904;DHT22;49000;50.698;13.322;2022-10-16T12:30:41;20.90;99.90
62904;DHT22;49000;50.698;13.322;2022-10-16T12:33:21;21.00;99.90
62904;DHT22;49000;50.698;13.322;2022-10-16T12:35:47;21.00;99.90
62904;DHT22;49000;50.698;13.322;2022-10-16T12:38:17;21.10;99.90
62904;DHT22;49000;50.698;13.322;2022-10-16T12:40:44;21.10;99.90
62904;DHT22;49000;50.698;13.322;2022-10-16T12:43:26;21.10;99.90
62904;DHT22;49000;50.698;13.322;2022-10-16T12:46:22;21.10;99.90
62904;DHT22;49000;50.698;13.322;2022-10-16T12:48:47;21.00;99.90
62904;DHT22;49000;50.698;13.322;2022-10-16T12:54:04;21.10;99.90
62904;DHT22;49000;50.698;13.322;2022-10-16T13:05:45;20.60;99.90
62904;DHT22;49000;50.698;13.322;2022-10-16T13:08:29;20.60;99.90
62904;DHT22;49000;50.698;13.322;2022-10-16T13:16:34;20.70;99.90
62904;DHT22;49000;50.698;13.322;2022-10-16T13:19:25;20.80;99.90
62904;DHT22;49000;50.698;13.322;2022-10-16T13:22:08;20.70;99.90
62904;DHT22;49000;50.698;13.322;2022-10-16T13:30:16;20.80;99.90
62904;DHT22;49000;50.698;13.322;2022-10-16T13:32:53;20.80;99.90
62904;DHT22;49000;50.698;13.322;2022-10-16T13:35:24;20.70;99.90
62904;DHT22;49000;50.698;13.322;2022-10-16T13:37:50;20.60;99.90
62904;DHT22;49000;50.698;13.322;2022-10-16T13:40:22;20.70;99.90
62904;DHT22;49000;50.698;13.322;2022-10-16T13:42:50;20.60;99.90
62904;DHT22;49000;50.698;13.322;2022-10-16T13:45:24;20.50;99.90
62904;DHT22;49000;50.698;13.322;2022-10-16T13:48:04;20.50;99.90
62904;DHT22;49000;50.698;13.322;2022-10-16T13:50:30;20.50;99.90
62904;DHT22;49000;50.698;13.322;2022-10-16T13:53:06;20.40;99.90
62904;DHT22;49000;50.698;13.322;2022-10-16T13:55:33;20.20;99.90
62904;DHT22;49000;50.698;13.322;2022-10-16T13:58:10;20.20;99.90
62904;DHT22;49000;50.698;13.322;2022-10-16T14:00:37;20.10;99.90
62904;DHT22;49000;50.698;13.322;2022-10-16T14:03:13;20.00;99.90
62904;DHT22;49000;50.698;13.322;2022-10-16T14:05:57;20.00;99.90
62904;DHT22;49000;50.698;13.322;2022-10-16T14:08:25;20.00;99.90
62904;DHT22;49000;50.698;13.322;2022-10-16T14:10:56;20.20;99.90
62904;DHT22;49000;50.698;13.322;2022-10-16T14:13:43;20.40;99.90
62904;DHT22;49000;50.698;13.322;2022-10-16T14:16:11;20.70;99.90
62904;DHT22;49000;50.698;13.322;2022-10-16T14:18:46;20.90;99.90
62904;DHT22;49000;50.698;13.322;2022-10-16T14:21:15;21.30;99.90
62904;DHT22;49000;50.698;13.322;2022-10-16T14:23:42;21.60;99.90
62904;DHT22;49000;50.698;13.322;2022-10-16T14:28:34;22.20;99.90
62904;DHT22;49000;50.698;13.322;2022-10-16T14:31:01;22.30;96.70
62904;DHT22;49000;50.698;13.322;2022-10-16T14:38:34;21.90;99.90
62904;DHT22;49000;50.698;13.322;2022-10-16T14:40:59;21.90;97.40
62904;DHT22;49000;50.698;13.322;2022-10-16T14:43:37;22.20;92.60
62904;DHT22;49000;50.698;13.322;2022-10-16T14:46:08;22.20;97.10
62904;DHT22;49000;50.698;13.322;2022-10-16T14:48:35;22.10;97.70
62904;DHT22;49000;50.698;13.322;2022-10-16T14:51:01;21.90;90.30
62904;DHT22;49000;50.698;13.322;2022-10-16T14:53:26;21.80;94.10
62904;DHT22;49000;50.698;13.322;2022-10-16T14:55:52;21.80;97.50
62904;DHT22;49000;50.698;13.322;2022-10-16T14:58:20;21.70;96.40
62904;DHT22;49000;50.698;13.322;2022-10-16T15:00:46;21.60;98.80
62904;DHT22;49000;50.698;13.322;2022-10-16T15:03:13;21.60;97.90
62904;DHT22;49000;50.698;13.322;2022-10-16T15:05:38;21.70;99.90
62904;DHT22;49000;50.698;13.322;2022-10-16T15:08:04;21.80;99.90
62904;DHT22;49000;50.698;13.322;2022-10-16T15:10:30;21.90;97.00
62904;DHT22;49000;50.698;13.322;2022-10-16T15:12:55;21.80;99.50
62904;DHT22;49000;50.698;13.322;2022-10-16T15:15:34;21.80;95.70
62904;DHT22;49000;50.698;13.322;2022-10-16T15:18:00;21.80;99.50
62904;DHT22;49000;50.698;13.322;2022-10-16T15:20:33;21.70;96.90
62904;DHT22;49000;50.698;13.322;2022-10-16T15:23:05;21.70;98.60
62904;DHT22;49000;50.698;13.322;2022-10-16T15:25:38;21.50;99.40
62904;DHT22;49000;50.698;13.322;2022-10-16T15:28:07;21.40;99.90
62904;DHT22;49000;50.698;13.322;2022-10-16T15:30:34;21.20;99.90
62904;DHT22;49000;50.698;13.322;2022-10-16T15:33:00;21.10;99.90
62904;DHT22;49000;50.698;13.322;2022-10-16T15:35:25;21.00;99.90
62904;DHT22;49000;50.698;13.322;2022-10-16T15:37:51;20.90;99.90
62904;DHT22;49000;50.698;13.322;2022-10-16T15:40:18;20.80;99.90
62904;DHT22;49000;50.698;13.322;2022-10-16T15:42:43;20.70;99.90
62904;DHT22;49000;50.698;13.322;2022-10-16T15:45:10;20.60;99.90
62904;DHT22;49000;50.698;13.322;2022-10-16T15:47:35;20.40;99.90
62904;DHT22;49000;50.698;13.322;2022-10-16T15:50:01;20.20;99.90
62904;DHT22;49000;50.698;13.322;2022-10-16T15:52:27;19.90;99.90
62904;DHT22;49000;50.698;13.322;2022-10-16T15:54:54;19.70;99.90
62904;DHT22;49000;50.698;13.322;2022-10-16T15:57:19;19.40;99.90
62904;DHT22;49000;50.698;13.322;2022-10-16T15:59:45;19.30;99.90
62904;DHT22;49000;50.698;13.322;2022-10-16T16:02:10;19.10;99.90
62904;DHT22;49000;50.698;13.322;2022-10-16T16:04:36;19.00;99.90
62904;DHT22;49000;50.698;13.322;2022-10-16T16:07:01;18.80;99.90
62904;DHT22;49000;50.698;13.322;2022-10-16T16:09:29;18.70;99.90
62904;DHT22;49000;50.698;13.322;2022-10-16T16:11:55;18.50;99.90
62904;DHT22;49000;50.698;13.322;2022-10-16T16:14:20;18.40;99.90
62904;DHT22;49000;50.698;13.322;2022-10-16T16:16:46;18.30;99.90
62904;DHT22;49000;50.698;13.322;2022-10-16T16:19:11;18.10;99.90
62904;DHT22;49000;50.698;13.322;2022-10-16T16:21:37;17.90;99.90
62904;DHT22;49000;50.698;13.322;2022-10-16T16:24:03;17.70;99.90
62904;DHT22;49000;50.698;13.322;2022-10-16T16:26:34;17.60;99.90
62904;DHT22;49000;50.698;13.322;2022-10-16T16:29:02;17.50;99.90
62904;DHT22;49000;50.698;13.322;2022-10-16T16:31:29;17.30;99.90
62904;DHT22;49000;50.698;13.322;2022-10-16T16:33:56;17.20;99.90
62904;DHT22;49000;50.698;13.322;2022-10-16T16:36:25;17.00;99.90
62904;DHT22;49000;50.698;13.322;2022-10-16T16:38:51;16.80;99.90
62904;DHT22;49000;50.698;13.322;2022-10-16T16:41:19;16.60;99.90
62904;DHT22;49000;50.698;13.322;2022-10-16T16:43:45;16.50;99.90
62904;DHT22;49000;50.698;13.322;2022-10-16T16:46:12;16.40;99.90
62904;DHT22;49000;50.698;13.322;2022-10-16T16:48:39;16.30;99.90
62904;DHT22;49000;50.698;13.322;2022-10-16T16:51:11;16.10;99.90
62904;DHT22;49000;50.698;13.322;2022-10-16T16:53:40;16.00;99.90
62904;DHT22;49000;50.698;13.322;2022-10-16T16:56:06;15.90;99.90
62904;DHT22;49000;50.698;13.322;2022-10-16T16:58:32;15.80;99.90
62904;DHT22;49000;50.698;13.322;2022-10-16T17:00:59;15.80;99.90
62904;DHT22;49000;50.698;13.322;2022-10-16T17:03:28;15.70;99.90
62904;DHT22;49000;50.698;13.322;2022-10-16T17:05:59;15.60;99.90
62904;DHT22;49000;50.698;13.322;2022-10-16T17:08:25;15.50;99.90
62904;DHT22;49000;50.698;13.322;2022-10-16T17:10:51;15.50;99.90
62904;DHT22;49000;50.698;13.322;2022-10-16T17:13:23;15.40;99.90